Time;durP1;ratioP1;P1;durP2;ratioP2;P2;SDS_P1;SDS_P2;PMS_P1;PMS_P2;Temp;Humidity;BMP_temperature;BMP_pressure;BME280_temperature;BME280_humidity;BME280_pressure;Samples;Min_cycle;Max_cycle;Signal;HPM_P1;HPM_P2
2022/06/26 00:02:05;;;;;;;26.30;23.93;;;20.80;99.90;;;20.85;84.30;100740.66;5004276;28;20447;-73
2022/06/26 00:04:35;;;;;;;28.17;25.40;;;20.80;99.90;;;20.82;84.33;100735.66;5001958;28;20419;-73
2022/06/26 00:07:05;;;;;;;28.80;25.90;;;20.70;99.90;;;20.77;84.55;100742.00;5005108;28;20505;-72
2022/06/26 00:09:34;;;;;;;26.60;24.00;;;20.70;99.90;;;20.78;84.78;100737.31;5004880;28;20550;-73
2022/06/26 00:12:04;;;;;;;27.63;25.10;;;20.70;99.90;;;20.80;85.18;100748.88;5004671;28;20536;-74
2022/06/26 00:14:33;;;;;;;30.70;27.70;;;20.70;99.90;;;20.81;85.40;100747.78;4990913;28;20434;-74
2022/06/26 00:17:04;;;;;;;29.13;26.33;;;20.70;99.90;;;20.80;85.22;100757.97;5011400;28;20926;-73
2022/06/26 00:19:34;;;;;;;29.40;26.53;;;20.70;99.90;;;20.80;85.14;100754.38;4982589;28;20514;-72
2022/06/26 00:22:05;;;;;;;28.23;25.73;;;20.70;99.90;;;20.88;85.48;100761.25;4991167;28;20482;-73
2022/06/26 00:24:35;;;;;;;28.10;25.20;;;20.80;99.90;;;20.90;84.66;100762.66;5007940;28;20437;-75
2022/06/26 00:27:06;;;;;;;26.67;24.13;;;20.80;99.90;;;20.83;85.01;100764.81;4998256;28;20407;-72
2022/06/26 00:29:36;;;;;;;27.80;25.30;;;20.80;99.90;;;20.91;85.56;100767.06;4997550;28;20965;-72
2022/06/26 00:32:08;;;;;;;25.97;23.57;;;20.80;99.90;;;20.81;85.37;100769.78;5003102;28;20479;-72
2022/06/26 00:34:37;;;;;;;27.73;24.93;;;20.80;99.90;;;20.73;85.14;100775.81;5000554;28;20820;-74
2022/06/26 00:37:07;;;;;;;27.67;24.90;;;20.70;99.90;;;20.67;85.80;100772.22;4987242;28;20445;-71
2022/06/26 00:39:36;;;;;;;28.87;25.97;;;20.60;99.90;;;20.63;86.18;100776.63;4998151;28;20464;-73
2022/06/26 00:42:06;;;;;;;31.50;28.60;;;20.60;1.00;;;20.69;86.51;100774.72;5007640;28;20476;-74
2022/06/26 00:44:35;;;;;;;28.93;26.07;;;20.60;1.00;;;20.71;86.65;100772.53;4981107;28;20926;-74
2022/06/26 00:47:06;;;;;;;31.83;28.40;;;20.60;1.00;;;20.68;86.59;100767.56;4996140;28;20434;-73
2022/06/26 00:49:35;;;;;;;28.00;25.50;;;20.60;1.00;;;20.57;86.64;100772.22;4999699;28;20465;-73
2022/06/26 00:52:05;;;;;;;27.63;24.93;;;20.50;1.00;;;20.52;87.26;100769.47;4996838;28;20491;-73
2022/06/26 00:54:35;;;;;;;30.90;27.80;;;20.50;1.00;;;20.48;87.32;100770.28;5007714;28;20420;-74
2022/06/26 00:57:05;;;;;;;29.07;26.37;;;20.40;1.00;;;20.43;87.35;100771.06;4977511;28;20435;-74
2022/06/26 00:59:35;;;;;;;31.87;28.67;;;20.40;99.90;;;20.41;87.96;100772.44;5004957;28;20503;-73
2022/06/26 01:02:06;;;;;;;30.17;27.30;;;20.40;1.00;;;20.37;88.33;100778.50;4987335;28;20509;-73
2022/06/26 01:04:35;;;;;;;32.60;29.30;;;20.30;99.90;;;20.34;88.49;100773.50;5005552;28;20439;-73
2022/06/26 01:07:06;;;;;;;41.03;36.87;;;20.30;99.90;;;20.44;88.55;100777.38;4990285;28;20457;-74
2022/06/26 01:09:35;;;;;;;42.80;38.23;;;20.30;99.90;;;20.54;87.83;100780.16;5003583;28;20475;-73
2022/06/26 01:12:05;;;;;;;36.70;33.17;;;20.40;99.90;;;20.57;87.27;100782.41;4998362;28;20481;-73
2022/06/26 01:14:40;;;;;;;39.20;35.03;;;20.50;99.90;;;20.66;86.68;100787.09;4997418;28;20541;-74
2022/06/26 01:17:11;;;;;;;41.57;37.47;;;20.60;99.90;;;20.55;86.77;100790.06;4993366;28;20420;-74
2022/06/26 01:19:40;;;;;;;38.27;34.50;;;20.50;99.90;;;20.41;87.36;100783.44;4984648;28;20445;-74
2022/06/26 01:22:09;;;;;;;37.23;33.47;;;20.40;99.90;;;20.32;87.77;100785.88;5008579;28;20858;-74
2022/06/26 01:24:40;;;;;;;40.70;36.50;;;20.30;99.90;;;20.24;87.94;100784.44;4991108;28;20823;-74
2022/06/26 01:27:09;;;;;;;39.10;34.90;;;20.20;99.90;;;20.19;88.47;100787.16;4986913;28;20436;-74
2022/06/26 01:29:37;;;;;;;39.33;35.27;;;20.20;99.90;;;20.14;88.38;100773.41;4992166;28;20489;-74
2022/06/26 01:32:08;;;;;;;40.63;36.50;;;20.10;99.90;;;20.11;88.73;100789.59;5006525;28;20507;-74
2022/06/26 01:34:37;;;;;;;38.23;34.20;;;20.10;99.90;;;20.11;89.06;100784.94;4974136;28;20424;-74
2022/06/26 01:37:08;;;;;;;38.47;34.47;;;20.10;99.90;;;20.11;89.64;100787.69;4988116;28;20428;-73
2022/06/26 01:39:37;;;;;;;37.37;33.67;;;20.10;99.90;;;20.07;89.38;100794.81;4985476;28;20443;-73
2022/06/26 01:42:07;;;;;;;37.17;33.27;;;20.00;99.90;;;20.06;89.53;100804.13;4986452;28;20505;-74
2022/06/26 01:44:36;;;;;;;38.30;34.37;;;20.00;99.90;;;20.04;89.58;100795.34;4992596;28;20955;-73
2022/06/26 01:47:05;;;;;;;31.47;28.47;;;20.00;99.90;;;20.02;89.64;100800.28;4990628;28;20583;-74
2022/06/26 01:49:37;;;;;;;33.23;30.07;;;20.00;99.90;;;20.08;90.02;100801.97;4984576;28;20451;-73
2022/06/26 01:52:07;;;;;;;32.80;28.57;;;20.00;99.90;;;20.20;89.73;100802.56;4992010;28;20490;-73
2022/06/26 01:54:36;;;;;;;28.53;25.60;;;20.10;99.90;;;20.18;89.48;100799.25;4987973;28;20432;-73
2022/06/26 01:57:07;;;;;;;34.77;31.37;;;20.10;99.90;;;20.14;89.35;100800.88;4991747;28;20427;-74
2022/06/26 01:59:36;;;;;;;31.70;28.67;;;20.10;99.90;;;20.14;89.66;100795.38;4984416;28;20453;-73
2022/06/26 02:02:08;;;;;;;30.70;27.70;;;20.10;99.90;;;20.14;89.66;100800.06;4985666;28;20443;-72
2022/06/26 02:04:37;;;;;;;29.57;26.50;;;20.00;99.90;;;20.19;89.41;100809.13;5002964;28;20416;-74
2022/06/26 02:07:06;;;;;;;28.13;25.53;;;20.10;99.90;;;20.14;89.24;100806.38;5009155;28;20767;-74
2022/06/26 02:15:11;;;;;;;28.30;25.60;;;20.10;99.90;;;20.14;89.59;100795.38;5007906;28;20456;-75
2022/06/26 02:17:40;;;;;;;29.07;25.20;;;20.10;99.90;;;20.19;89.86;100802.81;5007585;28;20449;-73
2022/06/26 02:20:11;;;;;;;31.37;28.10;;;20.10;99.90;;;20.23;89.49;100804.78;5004236;28;20522;-73
2022/06/26 02:22:42;;;;;;;30.00;26.90;;;20.10;99.90;;;20.25;89.18;100805.31;4983938;28;20891;-73
2022/06/26 02:25:11;;;;;;;28.97;26.07;;;20.10;99.90;;;20.22;89.13;100799.53;5005377;28;20979;-73
2022/06/26 02:27:41;;;;;;;27.10;24.43;;;20.10;99.90;;;20.24;89.16;100808.31;4987116;28;20981;-74
2022/06/26 02:30:11;;;;;;;28.57;25.50;;;20.20;99.90;;;20.22;89.11;100808.63;5007671;28;20742;-73
2022/06/26 02:32:40;;;;;;;27.50;24.83;;;20.20;99.90;;;20.20;89.42;100799.81;4996503;28;20443;-74
2022/06/26 02:35:10;;;;;;;33.53;30.07;;;20.10;99.90;;;20.22;89.37;100808.63;5000817;28;20417;-74
2022/06/26 02:37:39;;;;;;;31.37;28.00;;;20.10;99.90;;;20.24;89.34;100811.91;4988164;28;20448;-73
2022/06/26 02:40:10;;;;;;;32.90;27.87;;;20.10;99.90;;;20.23;88.97;100807.53;4986243;28;20685;-74
2022/06/26 02:42:40;;;;;;;29.93;26.93;;;20.10;99.90;;;20.20;88.95;100815.47;4982859;28;20531;-73
2022/06/26 02:45:09;;;;;;;29.07;26.20;;;20.10;99.90;;;20.18;89.40;100818.50;5011115;28;20486;-74
2022/06/26 02:47:39;;;;;;;29.67;26.73;;;20.10;99.90;;;20.17;89.30;100816.84;4989665;28;20431;-74
2022/06/26 02:50:10;;;;;;;31.43;28.20;;;20.10;99.90;;;20.16;88.83;100830.81;5010226;28;20714;-74
2022/06/26 02:52:39;;;;;;;31.93;28.73;;;20.10;99.90;;;20.16;89.42;100822.59;4980319;28;20451;-74
2022/06/26 02:55:09;;;;;;;34.20;30.73;;;20.10;99.90;;;20.25;89.63;100830.06;4984657;28;20934;-73
2022/06/26 02:57:43;;;;;;;31.03;28.03;;;20.10;99.90;;;20.44;88.62;100826.84;4992613;28;20427;-73
2022/06/26 03:00:14;;;;;;;31.43;28.40;;;20.20;99.90;;;20.52;87.71;100824.44;4986757;28;20946;-73
2022/06/26 03:02:46;;;;;;;39.03;30.40;;;20.30;99.90;;;20.49;87.61;100826.88;4994571;28;20499;-73
2022/06/26 03:05:15;;;;;;;30.77;27.60;;;20.30;99.90;;;20.46;87.56;100820.00;5006671;28;20446;-76
2022/06/26 03:07:44;;;;;;;30.63;27.60;;;20.30;99.90;;;20.45;87.89;100834.00;5006781;28;20416;-73
2022/06/26 03:10:13;;;;;;;30.27;27.37;;;20.30;99.90;;;20.43;87.85;100830.72;4986078;28;20444;-73
2022/06/26 03:12:47;;;;;;;29.23;26.10;;;20.30;99.90;;;20.52;87.30;100829.94;4995394;28;20504;-73
2022/06/26 03:15:16;;;;;;;30.70;27.80;;;20.30;99.90;;;20.57;87.31;100838.22;5013102;28;20951;-74
2022/06/26 03:17:46;;;;;;;28.07;25.27;;;20.40;99.90;;;20.65;87.07;100837.66;4997750;28;20490;-73
2022/06/26 03:20:18;;;;;;;26.97;24.10;;;20.40;99.90;;;20.71;86.48;100839.34;5010107;28;20514;-74
2022/06/26 03:22:50;;;;;;;27.00;24.50;;;20.50;99.90;;;20.77;86.68;100831.91;5010943;28;20469;-73
2022/06/26 03:25:21;;;;;;;28.70;25.23;;;20.50;99.90;;;20.83;86.10;100830.84;4991742;28;20451;-74
2022/06/26 03:27:52;;;;;;;29.97;26.87;;;20.50;99.90;;;20.93;85.79;100835.53;4982486;28;20442;-74
2022/06/26 03:30:22;;;;;;;29.07;26.13;;;20.60;99.90;;;21.07;84.90;100837.50;4988690;28;21080;-75
2022/06/26 03:32:52;;;;;;;28.97;26.40;;;20.80;99.90;;;21.21;84.43;100833.13;4995559;28;20443;-72
2022/06/26 03:35:21;;;;;;;30.47;27.47;;;20.90;99.90;;;21.41;83.40;100837.00;5008121;28;20449;-73
2022/06/26 03:37:49;;;;;;;26.90;24.40;;;21.00;99.90;;;21.73;81.69;100837.53;5004694;28;20424;-74
2022/06/26 03:40:19;;;;;;;27.87;25.27;;;21.20;99.90;;;22.18;79.37;100841.31;4990773;28;20431;-73
2022/06/26 03:42:48;;;;;;;25.73;23.33;;;21.50;99.90;;;22.91;76.00;100845.16;5000937;28;20564;-73
2022/06/26 03:45:18;;;;;;;26.07;23.63;;;21.90;99.90;;;24.11;70.59;100841.66;5009252;28;20411;-73
2022/06/26 03:47:47;;;;;;;25.23;22.93;;;22.40;99.90;;;24.87;67.29;100849.09;4984156;28;20446;-74
2022/06/26 03:50:17;;;;;;;25.27;22.77;;;22.80;99.90;;;25.74;64.20;100846.63;4994371;28;20439;-74
2022/06/26 03:52:50;;;;;;;27.63;25.03;;;23.40;99.90;;;26.50;61.69;100853.50;5005204;28;20963;-74
2022/06/26 03:55:19;;;;;;;25.07;22.57;;;23.90;99.90;;;27.09;59.13;100861.66;4991988;28;20453;-74
2022/06/26 03:57:49;;;;;;;23.43;21.37;;;24.50;99.90;;;27.17;58.36;100860.91;4994455;28;20457;-75
2022/06/26 04:00:19;;;;;;;23.70;21.40;;;24.80;99.90;;;27.62;57.03;100858.16;4983967;28;20450;-74
2022/06/26 04:02:51;;;;;;;23.27;21.30;;;25.10;99.90;;;28.26;55.48;100867.06;4980332;28;20536;-74
2022/06/26 04:05:24;;;;;;;22.37;20.57;;;25.40;99.90;;;28.87;53.52;100866.94;5001581;28;20991;-73
2022/06/26 04:07:57;;;;;;;21.50;19.60;;;25.60;99.90;;;29.13;52.36;100863.38;4993875;28;20476;-73
2022/06/26 04:10:47;;;;;;;23.20;20.73;;;26.10;94.50;;;29.94;50.13;100872.66;5005588;28;20828;-73
2022/06/26 04:13:31;;;;;;;21.00;19.10;;;26.40;90.50;;;30.06;49.54;100870.03;4985750;28;21015;-74
2022/06/26 04:16:02;;;;;;;20.57;18.50;;;26.70;79.90;;;30.63;48.14;100872.41;4990447;28;20461;-74
2022/06/26 04:18:33;;;;;;;20.90;19.00;;;27.00;73.80;;;30.56;47.87;100867.34;4996273;28;20760;-73
2022/06/26 04:21:04;;;;;;;18.47;16.77;;;27.40;60.10;;;30.78;47.45;100862.63;5012518;28;20549;-74
2022/06/26 04:23:34;;;;;;;17.77;16.23;;;27.50;56.30;;;31.40;46.40;100868.25;5006747;28;20457;-75
2022/06/26 04:26:08;;;;;;;21.17;19.43;;;27.60;54.90;;;31.14;46.58;100864.84;4989108;28;20496;-74
2022/06/26 04:28:37;;;;;;;19.63;18.07;;;27.60;50.80;;;30.56;47.36;100860.94;4990110;28;20449;-73
2022/06/26 04:31:09;;;;;;;20.03;18.20;;;27.60;48.00;;;31.16;46.51;100868.97;5000877;28;20804;-73
2022/06/26 04:33:39;;;;;;;19.33;17.50;;;27.90;45.50;;;31.61;45.58;100869.09;4991830;28;20821;-74
2022/06/26 04:36:09;;;;;;;18.23;16.57;;;28.00;41.40;;;31.63;45.28;100877.13;4980438;28;20459;-75
2022/06/26 04:38:39;;;;;;;19.37;17.87;;;28.30;37.60;;;32.04;44.51;100874.22;5001302;28;20491;-74
2022/06/26 04:43:56;;;;;;;18.60;17.13;;;28.70;31.90;;;32.85;42.83;100873.34;5011097;28;20878;-74
2022/06/26 04:46:27;;;;;;;17.40;15.80;;;28.80;27.50;;;33.16;41.92;100884.75;4989852;28;20450;-74
2022/06/26 04:48:58;;;;;;;17.50;16.20;;;28.80;26.80;;;33.33;41.89;100885.66;4992712;28;20457;-74
2022/06/26 04:51:28;;;;;;;18.30;16.83;;;29.30;25.80;;;33.43;41.37;100890.75;4995359;28;20480;-73
2022/06/26 04:53:58;;;;;;;16.70;15.30;;;30.40;17.70;;;33.99;40.12;100885.94;4984036;28;20568;-74
2022/06/26 04:56:38;;;;;;;16.83;15.53;;;29.80;16.00;;;34.09;39.65;100898.63;4995925;28;20484;-73
2022/06/26 04:59:07;;;;;;;17.90;16.20;;;29.70;17.20;;;31.71;43.53;100885.41;5007181;28;20450;-74
2022/06/26 05:01:38;;;;;;;15.60;14.40;;;29.80;15.60;;;29.91;48.14;100892.06;4983880;28;20466;-74
2022/06/26 05:04:43;;;;;;;16.40;15.07;;;28.60;20.40;;;28.08;52.38;100877.22;5001172;28;20527;-74
2022/06/26 05:07:14;;;;;;;17.67;16.37;;;27.30;33.40;;;27.34;54.39;100881.63;5002150;28;20545;-74
2022/06/26 05:09:43;;;;;;;19.00;17.40;;;26.90;42.80;;;26.62;56.22;100878.78;4986026;28;20453;-74
2022/06/26 05:12:13;;;;;;;18.33;16.63;;;26.10;57.10;;;26.17;57.81;100886.84;4982951;28;20492;-74
2022/06/26 05:15:06;;;;;;;18.40;16.83;;;25.60;77.40;;;25.76;59.96;100888.69;4994535;28;20464;-73
2022/06/26 05:17:44;;;;;;;19.00;17.23;;;25.30;92.80;;;25.82;60.20;100891.09;4982555;28;20507;-73
2022/06/26 05:20:17;;;;;;;19.63;18.03;;;25.20;95.20;;;25.54;60.50;100900.41;4993101;28;20766;-74
2022/06/26 05:22:46;;;;;;;20.40;18.60;;;25.00;95.80;;;25.43;60.95;100901.69;4984886;28;20477;-74
2022/06/26 05:25:16;;;;;;;19.47;17.57;;;24.90;97.90;;;25.46;61.30;100899.13;4993169;28;20513;-73
2022/06/26 05:27:46;;;;;;;20.70;18.90;;;24.90;99.50;;;25.63;60.30;100900.56;4986000;28;20449;-74
2022/06/26 05:30:16;;;;;;;21.43;19.43;;;25.10;96.50;;;25.40;61.14;100896.75;4988678;28;20954;-74
2022/06/26 05:32:46;;;;;;;19.53;17.73;;;24.80;98.70;;;25.43;61.34;100896.13;4986765;28;21011;-74
2022/06/26 05:35:21;;;;;;;21.23;19.23;;;24.80;99.90;;;25.53;61.27;100899.59;5004810;28;20430;-73
2022/06/26 05:37:51;;;;;;;22.90;20.80;;;24.90;99.50;;;25.72;60.45;100910.66;5011044;28;20453;-74
2022/06/26 05:40:20;;;;;;;20.87;19.07;;;25.00;98.50;;;25.77;60.82;100901.44;5009875;28;20461;-74
2022/06/26 05:42:50;;;;;;;21.73;19.43;;;25.00;99.00;;;25.70;61.15;100907.38;4987369;28;20503;-74
2022/06/26 05:45:20;;;;;;;18.63;16.93;;;24.90;99.30;;;25.93;59.41;100905.59;4978394;28;20549;-75
2022/06/26 05:48:10;;;;;;;19.40;17.60;;;25.10;96.20;;;26.01;59.51;100913.22;4998315;28;20448;-74
2022/06/26 05:51:04;;;;;;;20.43;18.63;;;25.10;95.90;;;26.16;58.74;100904.63;4979020;28;20851;-74
2022/06/26 05:53:40;;;;;;;20.83;18.93;;;25.20;94.90;;;26.14;59.58;100911.59;5011362;28;20441;-73
2022/06/26 05:56:27;;;;;;;19.10;17.40;;;25.30;95.10;;;26.15;58.67;100908.50;5009942;28;20468;-75
2022/06/26 05:59:34;;;;;;;16.90;15.40;;;25.30;93.00;;;26.15;57.92;100899.38;4963292;28;20449;-75
2022/06/26 06:02:24;;;;;;;17.17;15.53;;;25.30;89.20;;;26.33;57.59;100906.84;4950615;28;20475;-74
2022/06/26 06:04:55;;;;;;;17.50;16.10;;;25.40;87.70;;;26.56;56.62;100916.91;4969678;28;20927;-74
2022/06/26 06:07:24;;;;;;;16.60;15.10;;;25.50;83.90;;;26.71;56.00;100915.78;4988356;28;20889;-74
2022/06/26 06:09:52;;;;;;;16.23;14.93;;;25.80;77.20;;;26.70;56.47;100914.13;5002071;28;20440;-75
2022/06/26 06:12:21;;;;;;;17.67;16.00;;;25.80;80.00;;;26.75;56.13;100914.03;4979923;28;20519;-73
2022/06/26 06:14:50;;;;;;;19.67;17.87;;;26.00;74.50;;;26.71;57.42;100918.56;4982518;28;20504;-74
2022/06/26 06:17:40;;;;;;;17.40;15.90;;;26.10;78.60;;;26.65;57.12;100922.56;4981494;28;20481;-73
2022/06/26 06:20:15;;;;;;;16.50;15.13;;;26.10;73.20;;;26.76;56.31;100918.44;4997984;28;20469;-74
2022/06/26 06:22:47;;;;;;;15.17;13.80;;;26.20;70.30;;;26.84;56.21;100914.94;4992216;28;20496;-74
2022/06/26 06:25:17;;;;;;;16.40;15.10;;;26.30;65.70;;;26.75;56.01;100922.34;4991508;28;20666;-74
2022/06/26 06:27:46;;;;;;;15.43;14.23;;;26.20;61.10;;;26.89;56.13;100912.09;5005813;28;20835;-73
2022/06/26 06:30:19;;;;;;;13.57;12.40;;;26.40;61.80;;;27.10;54.39;100918.03;4986653;28;20455;-73
2022/06/26 06:32:50;;;;;;;14.40;12.47;;;26.60;52.50;;;27.23;53.27;100922.72;4985969;28;20512;-73
2022/06/26 06:35:31;;;;;;;12.13;11.13;;;26.70;46.40;;;27.50;52.75;100919.03;4999149;28;21033;-74
2022/06/26 06:38:00;;;;;;;11.60;10.70;;;26.90;41.80;;;27.76;52.09;100925.63;4990224;28;20454;-75
2022/06/26 06:40:30;;;;;;;10.20;9.30;;;27.00;39.20;;;27.82;52.36;100927.16;5026137;23;21021;-75
2022/06/26 06:43:02;;;;;;;12.00;11.00;;;27.10;37.80;;;28.24;50.75;100930.53;5009932;28;20479;-75
2022/06/26 06:45:51;;;;;;;12.23;11.23;;;27.40;33.70;;;28.52;49.94;100931.97;5030014;28;20455;-75
2022/06/26 06:48:24;;;;;;;11.07;10.17;;;27.80;29.50;;;28.75;49.23;100933.59;5009169;28;20454;-76
2022/06/26 06:51:34;;;;;;;12.27;11.17;;;27.90;27.00;;;28.68;49.32;100938.78;5020394;28;20553;-75
2022/06/26 06:54:03;;;;;;;12.60;11.60;;;28.10;25.40;;;28.66;49.74;100937.47;5012935;28;20558;-76
2022/06/26 06:56:32;;;;;;;11.83;10.83;;;28.10;24.40;;;28.62;49.93;100936.44;5014566;28;20474;-76
2022/06/26 06:59:01;;;;;;;11.00;10.17;;;27.90;24.80;;;28.37;49.01;100935.22;5008288;28;20879;-75
2022/06/26 07:01:31;;;;;;;9.90;9.10;;;27.80;22.70;;;28.38;48.61;100934.06;5008645;28;20452;-75
2022/06/26 07:04:00;;;;;;;11.13;10.13;;;27.70;21.90;;;28.45;48.36;100926.06;5010239;28;20949;-76
2022/06/26 07:06:29;;;;;;;10.97;10.07;;;27.80;21.00;;;28.85;48.48;100930.47;5006240;28;20475;-74
2022/06/26 07:09:01;;;;;;;10.87;10.03;;;28.00;21.30;;;29.22;47.23;100928.28;5031907;28;20457;-74
2022/06/26 07:11:31;;;;;;;9.27;8.57;;;28.30;19.30;;;29.38;46.34;100932.25;5013519;28;20850;-76
2022/06/26 07:14:01;;;;;;;8.80;8.10;;;28.60;17.10;;;29.61;45.72;100933.72;5021091;28;20472;-76
2022/06/26 07:16:30;;;;;;;8.40;7.70;;;28.80;15.60;;;29.66;44.95;100936.34;5025396;28;20494;-75
2022/06/26 07:18:59;;;;;;;9.83;8.93;;;29.00;13.30;;;29.77;45.34;100934.06;5001360;28;20476;-74
2022/06/26 07:21:28;;;;;;;9.93;9.03;;;29.00;12.80;;;29.62;45.39;100938.16;5006567;28;20472;-76
2022/06/26 07:23:57;;;;;;;10.00;9.10;;;28.90;12.40;;;29.30;46.81;100933.88;5004436;28;20459;-75
2022/06/26 07:26:45;;;;;;;10.87;9.87;;;28.70;13.60;;;29.14;47.05;100934.66;5014278;28;20514;-76
2022/06/26 07:29:14;;;;;;;10.63;9.63;;;28.60;14.10;;;29.09;47.30;100929.25;5011643;28;20451;-75
2022/06/26 07:31:44;;;;;;;11.20;10.30;;;28.40;14.20;;;28.89;47.46;100920.38;5007850;28;20492;-74
2022/06/26 07:34:18;;;;;;;15.70;10.13;;;28.40;14.00;;;28.69;47.91;100914.53;5008174;28;20507;-76
2022/06/26 07:36:50;;;;;;;12.23;10.90;;;28.20;14.80;;;28.98;47.92;100920.38;5014175;28;20475;-75
2022/06/26 07:39:22;;;;;;;12.90;11.67;;;28.30;15.50;;;29.16;47.11;100921.22;5010421;28;20884;-75
2022/06/26 07:41:54;;;;;;;11.40;10.57;;;28.60;14.90;;;29.26;47.23;100923.69;5000436;28;21194;-75
2022/06/26 07:44:27;;;;;;;12.00;11.10;;;28.80;14.40;;;29.33;47.35;100924.06;5021549;28;20456;-74
2022/06/26 07:46:57;;;;;;;11.70;10.80;;;28.80;14.30;;;29.28;47.59;100921.41;5003149;28;20986;-74
2022/06/26 07:49:42;;;;;;;11.87;10.90;;;28.80;14.70;;;29.46;46.51;100922.25;5013398;28;20459;-74
2022/06/26 07:52:12;;;;;;;10.90;9.90;;;28.90;13.00;;;29.50;45.71;100918.47;5009249;28;20484;-75
2022/06/26 07:54:41;;;;;;;10.20;9.30;;;29.00;11.40;;;29.71;44.26;100916.66;5022479;28;20460;-75
2022/06/26 07:57:11;;;;;;;9.33;8.53;;;29.10;9.60;;;29.80;43.84;100917.47;5026800;28;20476;-76
2022/06/26 07:59:40;;;;;;;7.83;7.13;;;29.30;8.20;;;29.69;43.57;100921.75;5010772;28;20506;-74
2022/06/26 08:02:09;;;;;;;8.70;8.00;;;29.30;6.90;;;29.64;44.08;100918.28;5020853;28;20982;-75
2022/06/26 08:04:39;;;;;;;9.83;8.83;;;29.30;6.90;;;29.51;44.13;100922.91;5010614;28;20678;-75
2022/06/26 08:07:08;;;;;;;7.67;6.97;;;29.20;6.90;;;29.47;44.16;100919.16;5008828;28;20507;-75
2022/06/26 08:09:37;;;;;;;8.63;7.93;;;29.20;6.40;;;29.51;43.71;100917.34;5020036;28;20484;-76
2022/06/26 08:12:07;;;;;;;8.30;7.70;;;29.20;6.10;;;29.58;43.64;100920.44;5030863;28;20510;-76
2022/06/26 08:14:38;;;;;;;9.57;8.83;;;29.20;5.80;;;29.51;44.52;100914.53;5000855;28;20476;-75
2022/06/26 08:17:08;;;;;;;10.53;7.70;;;29.20;6.50;;;29.73;43.65;100914.34;5030811;28;20825;-76
2022/06/26 08:19:37;;;;;;;9.07;8.23;;;29.30;5.60;;;29.69;43.60;100910.59;5018701;28;20468;-75
2022/06/26 08:22:06;;;;;;;7.80;7.10;;;29.40;5.50;;;29.68;42.91;100914.53;5025700;28;20464;-74
2022/06/26 08:24:38;;;;;;;8.20;7.20;;;29.40;4.10;;;29.68;42.59;100911.72;5014728;28;20464;-76
2022/06/26 08:27:07;;;;;;;7.40;6.80;;;29.40;3.20;;;29.73;42.81;100914.34;5024278;28;20448;-75
2022/06/26 08:29:38;;;;;;;6.87;6.37;;;29.30;3.60;;;29.94;41.66;100910.91;5024897;28;20626;-75
2022/06/26 08:32:08;;;;;;;9.17;6.23;;;29.40;2.30;;;30.41;41.26;100914.53;5031121;28;20506;-76
2022/06/26 08:34:37;;;;;;;7.10;6.40;;;29.80;2.10;;;30.59;39.87;100914.19;5026448;28;20483;-75
2022/06/26 08:37:06;;;;;;;6.20;5.70;;;30.00;1.00;;;30.74;39.97;100910.00;5023352;28;20450;-76
2022/06/26 08:39:35;;;;;;;5.20;4.80;;;30.30;1.00;;;31.08;38.95;100906.97;5025516;28;20535;-75
2022/06/26 08:42:06;;;;;;;8.60;6.23;;;30.50;1.00;;;30.88;39.56;100907.78;5019315;28;20469;-74
2022/06/26 08:44:42;;;;;;;6.13;5.60;;;30.40;1.00;;;31.03;39.57;100898.78;5028633;28;20520;-77
2022/06/26 08:47:11;;;;;;;5.87;5.37;;;30.40;1.00;;;31.33;38.27;100904.31;5024188;28;20489;-76
2022/06/26 08:49:41;;;;;;;4.80;4.40;;;30.70;1.00;;;31.41;37.57;100914.66;5020470;28;20959;-76
2022/06/26 08:52:14;;;;;;;6.50;6.00;;;30.90;1.00;;;31.57;37.08;100920.44;5015768;28;20456;-76
2022/06/26 08:54:45;;;;;;;5.90;5.40;;;30.90;1.00;;;31.22;37.14;100908.72;5023893;28;20499;-75
2022/06/26 08:57:16;;;;;;;5.33;4.83;;;30.90;1.00;;;31.17;37.63;100918.13;5015316;28;20563;-75
2022/06/26 08:59:46;;;;;;;5.53;5.03;;;30.90;1.00;;;31.24;37.48;100915.59;5018928;28;20451;-75
2022/06/26 09:02:15;;;;;;;5.60;5.10;;;30.80;1.00;;;31.13;37.86;100911.56;5022115;28;20472;-74
2022/06/26 09:04:44;;;;;;;7.70;7.07;;;30.60;1.00;;;31.20;38.87;100923.03;5023741;28;20720;-74
2022/06/26 09:07:13;;;;;;;6.33;5.83;;;30.80;1.00;;;31.50;39.03;100916.22;5028122;28;20444;-74
2022/06/26 09:09:41;;;;;;;7.83;7.20;;;30.90;1.00;;;31.65;38.17;100919.56;5016442;28;20534;-75
2022/06/26 09:12:10;;;;;;;6.70;6.10;;;31.20;1.00;;;31.65;37.73;100925.16;5014518;28;20470;-76
2022/06/26 09:14:39;;;;;;;8.17;7.50;;;31.20;1.00;;;31.79;37.34;100909.72;5016452;28;20472;-74
2022/06/26 09:17:09;;;;;;;8.87;8.17;;;31.20;1.00;;;31.76;37.59;100917.97;5016715;28;20556;-76
2022/06/26 09:19:46;;;;;;;8.00;7.30;;;31.20;1.00;;;31.22;38.70;100920.72;5017270;28;20448;-75
2022/06/26 09:22:17;;;;;;;10.27;9.37;;;31.00;1.00;;;30.95;38.98;100922.00;5018391;28;20560;-75
2022/06/26 09:24:55;;;;;;;7.87;7.17;;;30.60;1.00;;;31.06;38.92;100908.50;5022548;28;20468;-76
2022/06/26 09:27:24;;;;;;;7.17;6.60;;;30.70;1.00;;;31.38;38.53;100915.31;5028656;28;20539;-74
2022/06/26 09:29:56;;;;;;;6.90;6.30;;;30.90;1.00;;;31.75;37.34;100919.16;5027400;28;21040;-74
2022/06/26 09:32:27;;;;;;;5.60;5.10;;;31.20;1.00;;;31.38;36.92;100918.94;5025663;28;20985;-74
2022/06/26 09:34:56;;;;;;;6.17;5.57;;;31.10;1.00;;;31.47;36.84;100925.25;5027222;28;20503;-75
2022/06/26 09:37:25;;;;;;;6.93;6.37;;;31.00;1.00;;;31.55;36.82;100917.16;5027717;28;20467;-76
2022/06/26 09:40:16;;;;;;;6.03;5.53;;;31.10;1.00;;;31.52;37.01;100922.25;5018138;28;20462;-75
2022/06/26 09:42:45;;;;;;;7.40;6.80;;;31.10;1.00;;;31.35;37.92;100916.81;5015993;28;20507;-75
2022/06/26 09:45:14;;;;;;;7.53;6.93;;;31.00;1.00;;;31.69;38.11;100926.09;5019201;28;20433;-76
2022/06/26 09:47:45;;;;;;;6.37;5.83;;;31.20;1.00;;;32.20;36.92;100925.59;5019456;28;20951;-75
2022/06/26 09:50:14;;;;;;;6.40;5.90;;;31.50;1.00;;;32.42;36.70;100918.75;5022434;28;20543;-74
2022/06/26 09:52:44;;;;;;;7.20;6.63;;;31.80;1.00;;;32.90;35.56;100920.75;5016618;28;20509;-75
2022/06/26 09:55:13;;;;;;;6.73;6.17;;;32.10;1.00;;;32.73;35.73;100926.59;5013537;28;21004;-75
2022/06/26 09:57:46;;;;;;;6.47;5.97;;;32.30;1.00;;;33.03;35.22;100919.56;5020307;28;20428;-75
2022/06/26 10:00:16;;;;;;;7.37;6.57;;;32.30;1.00;;;33.01;35.60;100913.53;5020785;28;20519;-76
2022/06/26 10:08:24;;;;;;;7.03;6.53;;;32.20;1.00;;;32.05;36.82;100912.22;5028666;28;20521;-74
2022/06/26 10:10:56;;;;;;;7.57;6.87;;;31.80;1.00;;;31.79;37.31;100917.28;5021626;28;20480;-76
2022/06/26 10:13:29;;;;;;;8.10;7.50;;;31.50;1.00;;;31.52;37.54;100922.25;5025456;28;20473;-76
2022/06/26 10:16:23;;;;;;;7.40;6.80;;;31.20;1.00;;;31.15;38.04;100912.03;5028885;28;20821;-76
2022/06/26 10:19:17;;;;;;;6.83;6.23;;;31.00;1.00;;;31.21;38.12;100921.03;5021130;28;20441;-76
2022/06/26 10:21:47;;;;;;;8.23;6.93;;;30.70;1.00;;;31.72;37.75;100915.03;5014204;28;20499;-76
2022/06/26 10:24:16;;;;;;;8.07;7.40;;;30.90;1.00;;;32.03;37.46;100925.75;5022271;28;20484;-75
2022/06/26 10:26:54;;;;;;;8.03;7.33;;;31.10;1.00;;;31.92;37.55;100919.78;5026560;28;20911;-74
2022/06/26 10:29:35;;;;;;;7.33;6.83;;;31.10;1.00;;;31.81;37.55;100923.34;5026665;28;20543;-74
2022/06/26 10:32:05;;;;;;;7.97;7.27;;;31.00;1.00;;;31.95;37.67;100917.47;5020116;28;20502;-75
2022/06/26 10:34:37;;;;;;;7.27;6.67;;;31.00;1.00;;;31.99;37.37;100924.00;5017970;28;20458;-78
2022/06/26 10:37:10;;;;;;;8.30;7.57;;;31.20;1.00;;;32.28;37.11;100921.88;5024831;28;20533;-75
2022/06/26 10:39:46;;;;;;;7.20;6.60;;;31.40;1.00;;;32.13;37.08;100916.97;5026284;28;21010;-75